Freeman, Missouri
Current Conditions -  °F | °C
As of 9:53 PM on Thursday 20 Nov 2014 (Local Time) from KOJC Reporting Station
Clear Clear  
Wind Chill: 21°   Ceiling: Unl
Heat Index: 29°   Visibility: 10mi
Dew Point: 18°   Wind: 8mph
Humidity: 64%   Direction: 70°ENE
Pressure: 30.24"   Gusts: NA
Location:  38.62°N, 94.51°W
Report Text: KOJC 210353Z AUTO 07007KT 10SM CLR M02/M08 A3024 RMK AO2 SLP250 T10171078
Loading
Personal Weather Stations






























Interactive Weather Map New forecast layout! Learn more

10-Day Weather Forecast

Advertisements
Track Severe Weather on mobile